createdAt,value
2023-05-14T00:00:24.701Z,9.15
2023-05-14T00:10:49.432Z,8.60
2023-05-14T00:16:12.355Z,9.48
2023-05-14T00:21:15.552Z,9.10
2023-05-14T00:26:18.608Z,11.25
2023-05-14T00:31:21.846Z,9.20
2023-05-14T00:36:24.996Z,11.07
2023-05-14T00:41:27.938Z,9.95
2023-05-14T00:46:31.526Z,10.65
2023-05-14T00:51:34.615Z,9.52
2023-05-14T00:56:37.582Z,11.07
2023-05-14T01:01:40.562Z,10.27
2023-05-14T01:07:12.816Z,11.23
2023-05-14T01:12:45.253Z,8.38
2023-05-14T01:17:58.336Z,12.45
2023-05-14T01:23:01.271Z,8.75
2023-05-14T01:28:18.332Z,9.63
2023-05-14T01:33:25.183Z,11.77
2023-05-14T01:38:31.960Z,9.75
2023-05-14T01:43:36.006Z,9.88
2023-05-14T01:48:39.074Z,8.27
2023-05-14T01:58:44.948Z,9.73
2023-05-14T02:03:48.020Z,9.60
2023-05-14T02:08:51.214Z,10.27
2023-05-14T02:13:54.154Z,9.15
2023-05-14T02:18:57.153Z,9.63
2023-05-14T02:24:19.960Z,11.05
2023-05-14T02:29:22.893Z,11.00
2023-05-14T02:34:26.150Z,8.25
2023-05-14T02:39:28.978Z,9.63
2023-05-14T02:44:52.410Z,12.75
2023-05-14T02:49:55.493Z,10.40
2023-05-14T02:54:58.896Z,11.13
2023-05-14T03:00:01.764Z,9.13
2023-05-14T03:05:09.508Z,9.63
2023-05-14T03:10:12.825Z,8.65
2023-05-14T03:15:15.897Z,12.85
2023-05-14T03:20:18.851Z,8.30
2023-05-14T03:25:22.282Z,9.75
2023-05-14T03:35:28.395Z,9.15
2023-05-14T03:40:31.298Z,9.15
2023-05-14T03:45:35.688Z,10.82
2023-05-14T03:50:39.100Z,8.30
2023-05-14T03:55:42.756Z,8.20
2023-05-14T04:00:47.723Z,9.55
2023-05-14T04:05:51.445Z,10.23
2023-05-14T04:10:55.869Z,8.88
2023-05-14T04:15:59.285Z,11.32
2023-05-14T04:26:05.637Z,8.13
2023-05-14T04:36:11.214Z,12.55
2023-05-14T04:41:14.083Z,11.73
2023-05-14T04:46:17.213Z,9.30
2023-05-14T04:51:20.093Z,8.27
2023-05-14T04:56:22.967Z,8.73
2023-05-14T05:01:25.915Z,9.93
2023-05-14T05:06:28.866Z,13.18
2023-05-14T05:11:32.038Z,9.75
2023-05-14T05:16:35.024Z,8.25
2023-05-14T05:26:43.161Z,9.40
2023-05-14T05:31:46.446Z,7.82
2023-05-14T05:36:49.363Z,7.70
2023-05-14T05:46:57.512Z,6.97
2023-05-14T05:52:00.655Z,9.40
2023-05-14T06:02:07.193Z,9.25
2023-05-14T06:07:10.720Z,10.43
2023-05-14T06:12:14.516Z,7.95
2023-05-14T06:17:18.365Z,10.63
2023-05-14T06:22:21.353Z,6.50
2023-05-14T06:27:24.214Z,7.82
2023-05-14T06:32:27.118Z,7.50
2023-05-14T06:37:30.209Z,9.57
2023-05-14T06:42:51.918Z,9.15
2023-05-14T06:47:56.161Z,6.40
2023-05-14T06:52:59.004Z,6.32
2023-05-14T06:58:01.868Z,5.97
2023-05-14T07:03:04.863Z,4.47
2023-05-14T07:08:08.144Z,5.82
2023-05-14T07:13:11.490Z,4.93
2023-05-14T07:18:14.497Z,5.57
2023-05-14T07:23:19.771Z,6.18
2023-05-14T07:28:22.897Z,6.32
2023-05-14T07:33:26.047Z,5.57
2023-05-14T07:38:29.011Z,6.30
2023-05-14T07:43:31.933Z,5.93
2023-05-14T07:48:34.919Z,8.00
2023-05-14T07:53:37.926Z,8.02
2023-05-14T07:58:41.638Z,6.95
2023-05-14T08:03:44.759Z,5.38
2023-05-14T08:08:47.855Z,5.13
2023-05-14T08:13:51.037Z,5.35
2023-05-14T08:18:53.933Z,5.65
2023-05-14T08:23:56.964Z,7.03
2023-05-14T08:28:59.991Z,5.32
2023-05-14T08:34:02.862Z,5.68
2023-05-14T08:39:07.949Z,6.53
2023-05-14T08:44:14.769Z,6.43
2023-05-14T08:49:17.663Z,6.53
2023-05-14T08:54:24.095Z,5.35
2023-05-14T08:59:27.208Z,5.78
2023-05-14T09:04:31.962Z,6.32
2023-05-14T09:09:35.149Z,5.88
2023-05-14T09:14:38.437Z,6.15
2023-05-14T09:19:42.889Z,8.63
2023-05-14T09:25:02.776Z,6.68
2023-05-14T09:30:10.234Z,4.60
2023-05-14T09:35:21.689Z,4.90
2023-05-14T09:40:25.141Z,4.88
2023-05-14T09:45:29.681Z,7.22
2023-05-14T09:50:32.918Z,6.30
2023-05-14T09:55:37.180Z,5.82
2023-05-14T10:00:40.148Z,4.30
2023-05-14T10:05:43.354Z,5.18
2023-05-14T10:10:46.194Z,8.48
2023-05-14T10:15:58.101Z,4.10
2023-05-14T10:21:05.220Z,9.82
2023-05-14T10:26:10.196Z,6.43
2023-05-14T10:31:14.487Z,8.15
2023-05-14T10:36:21.082Z,4.07
2023-05-14T10:41:24.034Z,4.85
2023-05-14T10:46:27.018Z,5.13
2023-05-14T10:51:31.645Z,4.22
2023-05-14T10:56:34.642Z,4.22
2023-05-14T11:01:41.074Z,3.60
2023-05-14T11:06:47.185Z,4.90
2023-05-14T11:12:09.036Z,4.68
2023-05-14T11:17:12.690Z,5.88
2023-05-14T11:22:15.754Z,7.47
2023-05-14T11:27:19.683Z,4.18
2023-05-14T11:32:22.938Z,4.72
2023-05-14T11:37:25.948Z,4.50
2023-05-14T11:42:47.687Z,4.10
2023-05-14T11:47:50.782Z,4.45
2023-05-14T11:52:57.509Z,4.38
2023-05-14T11:58:00.970Z,6.15
2023-05-14T12:03:04.217Z,4.70
2023-05-14T12:08:26.261Z,5.45
2023-05-14T12:13:32.728Z,7.25
2023-05-14T12:18:36.340Z,5.05
2023-05-14T12:23:39.844Z,5.25
2023-05-14T12:28:43.746Z,4.20
2023-05-14T12:33:47.936Z,5.88
2023-05-14T12:38:51.655Z,7.30
2023-05-14T12:43:54.502Z,5.43
2023-05-14T12:48:57.838Z,5.95
2023-05-14T12:54:00.728Z,6.30
2023-05-14T12:59:03.780Z,5.20
2023-05-14T13:04:06.755Z,7.68
2023-05-14T13:09:09.764Z,5.47
2023-05-14T13:14:31.447Z,4.43
2023-05-14T13:19:34.588Z,5.00
2023-05-14T13:24:37.453Z,5.85
2023-05-14T13:29:40.444Z,6.05
2023-05-14T13:34:44.378Z,5.72
2023-05-14T13:39:48.770Z,5.90
2023-05-14T13:44:52.994Z,3.70
2023-05-14T13:49:56.707Z,5.85
2023-05-14T13:54:59.632Z,4.55
2023-05-14T14:00:05.346Z,7.10
2023-05-14T14:05:10.242Z,3.72
2023-05-14T14:10:13.171Z,4.28
2023-05-14T14:15:16.116Z,5.30
2023-05-14T14:20:19.305Z,4.10
2023-05-14T14:25:22.679Z,7.68
2023-05-14T14:30:25.937Z,5.90
2023-05-14T14:35:28.926Z,4.82
2023-05-14T14:40:33.970Z,4.05
2023-05-14T14:45:37.075Z,7.05
2023-05-14T14:50:40.110Z,5.57
2023-05-14T14:55:42.926Z,5.97
2023-05-14T15:00:46.142Z,4.75
2023-05-14T15:05:49.107Z,3.78
2023-05-14T15:10:52.370Z,3.05
2023-05-14T15:15:55.387Z,4.10
2023-05-14T15:20:58.545Z,5.95
2023-05-14T15:26:01.423Z,9.40
2023-05-14T15:31:04.713Z,6.20
2023-05-14T15:36:08.408Z,5.88
2023-05-14T15:41:11.661Z,6.38
2023-05-14T15:46:14.746Z,6.15
2023-05-14T15:51:17.788Z,4.43
2023-05-14T15:56:22.211Z,5.93
2023-05-14T16:01:25.086Z,7.25
2023-05-14T16:06:28.015Z,5.60
2023-05-14T16:11:31.480Z,8.20
2023-05-14T16:16:34.398Z,6.50
2023-05-14T16:21:37.508Z,5.88
2023-05-14T16:26:40.822Z,5.28
2023-05-14T16:31:44.021Z,5.63
2023-05-14T16:36:47.325Z,5.88
2023-05-14T16:41:50.306Z,5.97
2023-05-14T16:46:53.390Z,5.30
2023-05-14T16:51:56.329Z,6.97
2023-05-14T16:56:59.315Z,6.53
2023-05-14T17:07:06.105Z,7.15
2023-05-14T17:12:11.312Z,5.82
2023-05-14T17:17:14.201Z,5.32
2023-05-14T17:22:17.462Z,8.93
2023-05-14T17:27:20.362Z,5.30
2023-05-14T17:32:23.265Z,5.88
2023-05-14T17:37:27.425Z,4.70
2023-05-14T17:42:30.403Z,4.95
2023-05-14T17:47:33.498Z,6.18
2023-05-14T17:52:36.836Z,6.43
2023-05-14T17:57:39.916Z,3.50
2023-05-14T18:02:42.914Z,4.35
2023-05-14T18:07:45.978Z,3.72
2023-05-14T18:12:49.850Z,3.95
2023-05-14T18:17:52.950Z,11.55
2023-05-14T18:22:57.139Z,6.20
2023-05-14T18:28:00.151Z,4.78
2023-05-14T18:33:03.613Z,5.38
2023-05-14T18:38:08.157Z,4.25
2023-05-14T18:43:13.562Z,4.43
2023-05-14T18:48:16.777Z,5.53
2023-05-14T18:53:19.765Z,4.50
2023-05-14T18:58:22.807Z,3.72
2023-05-14T19:03:26.237Z,4.13
2023-05-14T19:13:31.926Z,3.40
2023-05-14T19:18:35.156Z,4.07
2023-05-14T19:23:38.461Z,4.38
2023-05-14T19:28:41.606Z,5.05
2023-05-14T19:33:44.588Z,6.50
2023-05-14T19:38:48.560Z,5.28
2023-05-14T19:43:51.513Z,4.65
2023-05-14T19:48:54.442Z,4.95
2023-05-14T19:53:57.431Z,4.35
2023-05-14T19:59:00.335Z,4.05
2023-05-14T20:04:03.319Z,3.70
2023-05-14T20:09:06.318Z,4.82
2023-05-14T20:14:09.387Z,4.05
2023-05-14T20:19:13.884Z,3.85
2023-05-14T20:24:17.043Z,3.88
2023-05-14T20:29:20.053Z,5.65
2023-05-14T20:34:23.352Z,4.90
2023-05-14T20:39:26.234Z,4.93
2023-05-14T20:44:29.185Z,4.60
2023-05-14T20:49:32.106Z,4.70
2023-05-14T20:54:35.117Z,5.30
2023-05-14T20:59:38.434Z,4.50
2023-05-14T21:04:41.529Z,5.18
2023-05-14T21:09:50.994Z,4.30
2023-05-14T21:14:54.159Z,5.00
2023-05-14T21:19:57.238Z,4.38
2023-05-14T21:25:00.386Z,4.82
2023-05-14T21:30:03.548Z,6.20
2023-05-14T21:35:09.329Z,4.97
2023-05-14T21:40:12.823Z,6.07
2023-05-14T21:45:15.775Z,4.90
2023-05-14T21:50:20.093Z,4.93
2023-05-14T21:55:23.679Z,4.75
2023-05-14T22:00:26.834Z,6.05
2023-05-14T22:05:29.736Z,6.38
2023-05-14T22:10:32.575Z,4.47
2023-05-14T22:15:35.606Z,6.07
2023-05-14T22:20:39.288Z,5.00
2023-05-14T22:25:42.327Z,4.97
2023-05-14T22:30:45.179Z,5.82
2023-05-14T22:35:48.278Z,5.50
2023-05-14T22:40:51.364Z,5.55
2023-05-14T22:45:54.268Z,7.63
2023-05-14T22:50:57.152Z,7.38
2023-05-14T22:56:00.023Z,5.63
2023-05-14T23:01:02.985Z,6.05
2023-05-14T23:06:06.142Z,6.30
2023-05-14T23:11:09.124Z,6.28
2023-05-14T23:16:12.075Z,5.80
2023-05-14T23:21:15.246Z,5.85
2023-05-14T23:26:18.272Z,7.15
2023-05-14T23:31:21.517Z,6.40
2023-05-14T23:36:24.686Z,6.50
2023-05-14T23:41:27.591Z,6.50
2023-05-14T23:46:30.590Z,7.43
2023-05-14T23:51:33.533Z,6.97
2023-05-14T23:56:36.512Z,6.68
